sensor_id;sensor_type;location;lat;lon;timestamp;P1;durP1;ratioP1;P2;durP2;ratioP2
20986;SDS011;10652;50.306;8.570;2023-03-01T00:03:35;13.20;;;9.90;;
20986;SDS011;10652;50.306;8.570;2023-03-01T00:07:37;16.45;;;10.32;;
20986;SDS011;10652;50.306;8.570;2023-03-01T00:11:39;13.27;;;9.93;;
20986;SDS011;10652;50.306;8.570;2023-03-01T00:15:43;13.07;;;9.40;;
20986;SDS011;10652;50.306;8.570;2023-03-01T00:19:45;12.25;;;8.45;;
20986;SDS011;10652;50.306;8.570;2023-03-01T00:23:47;11.88;;;8.82;;
20986;SDS011;10652;50.306;8.570;2023-03-01T00:27:50;11.18;;;8.93;;
20986;SDS011;10652;50.306;8.570;2023-03-01T00:31:52;13.55;;;9.93;;
20986;SDS011;10652;50.306;8.570;2023-03-01T00:35:54;12.85;;;9.02;;
20986;SDS011;10652;50.306;8.570;2023-03-01T00:39:56;13.43;;;9.27;;
20986;SDS011;10652;50.306;8.570;2023-03-01T00:43:58;12.63;;;8.73;;
20986;SDS011;10652;50.306;8.570;2023-03-01T00:48:00;14.05;;;9.60;;
20986;SDS011;10652;50.306;8.570;2023-03-01T00:52:03;14.70;;;10.15;;
20986;SDS011;10652;50.306;8.570;2023-03-01T00:56:05;12.02;;;9.27;;
20986;SDS011;10652;50.306;8.570;2023-03-01T01:00:09;14.30;;;9.43;;
20986;SDS011;10652;50.306;8.570;2023-03-01T01:04:13;15.48;;;9.13;;
20986;SDS011;10652;50.306;8.570;2023-03-01T01:08:15;12.73;;;9.07;;
20986;SDS011;10652;50.306;8.570;2023-03-01T01:12:17;13.27;;;9.80;;
20986;SDS011;10652;50.306;8.570;2023-03-01T01:16:19;11.88;;;9.50;;
20986;SDS011;10652;50.306;8.570;2023-03-01T01:20:23;13.98;;;9.50;;
20986;SDS011;10652;50.306;8.570;2023-03-01T01:24:25;14.35;;;9.43;;
20986;SDS011;10652;50.306;8.570;2023-03-01T01:28:27;12.82;;;9.55;;
20986;SDS011;10652;50.306;8.570;2023-03-01T01:32:29;13.23;;;9.23;;
20986;SDS011;10652;50.306;8.570;2023-03-01T01:36:32;13.73;;;9.63;;
20986;SDS011;10652;50.306;8.570;2023-03-01T01:40:34;15.43;;;9.95;;
20986;SDS011;10652;50.306;8.570;2023-03-01T01:44:36;12.52;;;9.57;;
20986;SDS011;10652;50.306;8.570;2023-03-01T01:48:43;11.55;;;9.55;;
20986;SDS011;10652;50.306;8.570;2023-03-01T01:52:51;13.45;;;10.00;;
20986;SDS011;10652;50.306;8.570;2023-03-01T01:56:56;13.63;;;10.07;;
20986;SDS011;10652;50.306;8.570;2023-03-01T02:01:04;13.35;;;9.80;;
20986;SDS011;10652;50.306;8.570;2023-03-01T02:05:24;16.83;;;10.75;;
20986;SDS011;10652;50.306;8.570;2023-03-01T02:13:37;12.63;;;9.38;;
20986;SDS011;10652;50.306;8.570;2023-03-01T02:17:39;12.82;;;9.48;;
20986;SDS011;10652;50.306;8.570;2023-03-01T02:22:18;13.55;;;9.95;;
20986;SDS011;10652;50.306;8.570;2023-03-01T02:26:37;13.35;;;9.88;;
20986;SDS011;10652;50.306;8.570;2023-03-01T02:30:44;12.23;;;9.45;;
20986;SDS011;10652;50.306;8.570;2023-03-01T02:35:09;13.63;;;10.00;;
20986;SDS011;10652;50.306;8.570;2023-03-01T02:39:16;11.98;;;9.30;;
20986;SDS011;10652;50.306;8.570;2023-03-01T02:43:22;15.27;;;10.65;;
20986;SDS011;10652;50.306;8.570;2023-03-01T02:47:29;15.18;;;10.85;;
20986;SDS011;10652;50.306;8.570;2023-03-01T02:51:41;13.57;;;9.65;;
20986;SDS011;10652;50.306;8.570;2023-03-01T02:55:47;13.80;;;10.47;;
20986;SDS011;10652;50.306;8.570;2023-03-01T02:59:50;13.93;;;10.30;;
20986;SDS011;10652;50.306;8.570;2023-03-01T03:03:54;15.77;;;10.77;;
20986;SDS011;10652;50.306;8.570;2023-03-01T03:07:56;13.07;;;10.25;;
20986;SDS011;10652;50.306;8.570;2023-03-01T03:12:01;15.82;;;11.20;;
20986;SDS011;10652;50.306;8.570;2023-03-01T03:16:03;14.32;;;9.93;;
20986;SDS011;10652;50.306;8.570;2023-03-01T03:20:06;12.77;;;9.57;;
20986;SDS011;10652;50.306;8.570;2023-03-01T03:24:13;13.95;;;10.55;;
20986;SDS011;10652;50.306;8.570;2023-03-01T03:28:15;14.40;;;11.43;;
20986;SDS011;10652;50.306;8.570;2023-03-01T03:32:17;17.05;;;11.30;;
20986;SDS011;10652;50.306;8.570;2023-03-01T03:36:21;15.63;;;10.70;;
20986;SDS011;10652;50.306;8.570;2023-03-01T03:40:25;16.13;;;11.27;;
20986;SDS011;10652;50.306;8.570;2023-03-01T03:44:28;17.73;;;11.40;;
20986;SDS011;10652;50.306;8.570;2023-03-01T03:48:31;17.13;;;11.95;;
20986;SDS011;10652;50.306;8.570;2023-03-01T03:52:35;16.88;;;11.80;;
20986;SDS011;10652;50.306;8.570;2023-03-01T03:56:37;17.35;;;11.57;;
20986;SDS011;10652;50.306;8.570;2023-03-01T04:00:41;17.88;;;11.98;;
20986;SDS011;10652;50.306;8.570;2023-03-01T04:04:45;14.75;;;11.18;;
20986;SDS011;10652;50.306;8.570;2023-03-01T04:08:47;17.52;;;11.82;;
20986;SDS011;10652;50.306;8.570;2023-03-01T04:12:52;15.68;;;11.30;;
20986;SDS011;10652;50.306;8.570;2023-03-01T04:16:54;15.32;;;10.95;;
20986;SDS011;10652;50.306;8.570;2023-03-01T04:20:56;17.52;;;11.75;;
20986;SDS011;10652;50.306;8.570;2023-03-01T04:24:58;16.10;;;11.55;;
20986;SDS011;10652;50.306;8.570;2023-03-01T04:29:07;16.05;;;12.05;;
20986;SDS011;10652;50.306;8.570;2023-03-01T04:33:10;14.90;;;11.40;;
20986;SDS011;10652;50.306;8.570;2023-03-01T04:37:13;16.73;;;12.38;;
20986;SDS011;10652;50.306;8.570;2023-03-01T04:41:18;18.50;;;12.13;;
20986;SDS011;10652;50.306;8.570;2023-03-01T04:45:21;16.30;;;12.25;;
20986;SDS011;10652;50.306;8.570;2023-03-01T04:49:24;19.25;;;12.70;;
20986;SDS011;10652;50.306;8.570;2023-03-01T04:53:26;17.90;;;12.75;;
20986;SDS011;10652;50.306;8.570;2023-03-01T04:57:29;17.85;;;11.68;;
20986;SDS011;10652;50.306;8.570;2023-03-01T05:01:31;16.60;;;12.38;;
20986;SDS011;10652;50.306;8.570;2023-03-01T05:05:34;17.48;;;11.40;;
20986;SDS011;10652;50.306;8.570;2023-03-01T05:09:39;16.20;;;11.77;;
20986;SDS011;10652;50.306;8.570;2023-03-01T05:13:41;17.38;;;11.57;;
20986;SDS011;10652;50.306;8.570;2023-03-01T05:17:43;19.33;;;12.57;;
20986;SDS011;10652;50.306;8.570;2023-03-01T05:21:45;18.92;;;12.18;;
20986;SDS011;10652;50.306;8.570;2023-03-01T05:26:06;18.38;;;12.18;;
20986;SDS011;10652;50.306;8.570;2023-03-01T05:30:23;16.52;;;10.45;;
20986;SDS011;10652;50.306;8.570;2023-03-01T05:34:25;17.10;;;11.45;;
20986;SDS011;10652;50.306;8.570;2023-03-01T05:38:28;18.42;;;11.73;;
20986;SDS011;10652;50.306;8.570;2023-03-01T05:42:30;16.83;;;11.02;;
20986;SDS011;10652;50.306;8.570;2023-03-01T05:46:32;18.10;;;11.90;;
20986;SDS011;10652;50.306;8.570;2023-03-01T05:50:35;16.75;;;11.77;;
20986;SDS011;10652;50.306;8.570;2023-03-01T05:54:42;16.95;;;11.32;;
20986;SDS011;10652;50.306;8.570;2023-03-01T05:58:44;71.25;;;28.98;;
20986;SDS011;10652;50.306;8.570;2023-03-01T06:02:46;18.38;;;12.23;;
20986;SDS011;10652;50.306;8.570;2023-03-01T06:06:48;18.75;;;11.80;;
20986;SDS011;10652;50.306;8.570;2023-03-01T06:10:50;17.33;;;12.15;;
20986;SDS011;10652;50.306;8.570;2023-03-01T06:14:52;18.38;;;12.32;;
20986;SDS011;10652;50.306;8.570;2023-03-01T06:18:54;18.27;;;12.50;;
20986;SDS011;10652;50.306;8.570;2023-03-01T06:22:56;17.23;;;11.88;;
20986;SDS011;10652;50.306;8.570;2023-03-01T06:26:58;16.52;;;11.52;;
20986;SDS011;10652;50.306;8.570;2023-03-01T06:31:00;17.70;;;12.32;;
20986;SDS011;10652;50.306;8.570;2023-03-01T06:35:03;17.83;;;11.95;;
20986;SDS011;10652;50.306;8.570;2023-03-01T06:39:06;19.45;;;12.82;;
20986;SDS011;10652;50.306;8.570;2023-03-01T06:43:08;17.75;;;12.45;;
20986;SDS011;10652;50.306;8.570;2023-03-01T06:47:11;17.85;;;12.18;;
20986;SDS011;10652;50.306;8.570;2023-03-01T06:51:13;19.70;;;12.50;;
20986;SDS011;10652;50.306;8.570;2023-03-01T06:55:15;17.70;;;12.48;;
20986;SDS011;10652;50.306;8.570;2023-03-01T06:59:17;20.80;;;12.73;;
20986;SDS011;10652;50.306;8.570;2023-03-01T07:03:19;15.82;;;11.20;;
20986;SDS011;10652;50.306;8.570;2023-03-01T07:07:21;18.95;;;12.25;;
20986;SDS011;10652;50.306;8.570;2023-03-01T07:11:24;16.77;;;11.70;;
20986;SDS011;10652;50.306;8.570;2023-03-01T07:15:26;20.45;;;12.52;;
20986;SDS011;10652;50.306;8.570;2023-03-01T07:19:29;19.02;;;12.73;;
20986;SDS011;10652;50.306;8.570;2023-03-01T07:23:31;19.77;;;11.68;;
20986;SDS011;10652;50.306;8.570;2023-03-01T07:27:33;17.92;;;12.20;;
20986;SDS011;10652;50.306;8.570;2023-03-01T07:31:35;17.20;;;12.52;;
20986;SDS011;10652;50.306;8.570;2023-03-01T07:35:38;19.75;;;12.18;;
20986;SDS011;10652;50.306;8.570;2023-03-01T07:39:40;18.08;;;11.60;;
20986;SDS011;10652;50.306;8.570;2023-03-01T07:43:42;19.17;;;12.35;;
20986;SDS011;10652;50.306;8.570;2023-03-01T07:47:44;18.40;;;12.57;;
20986;SDS011;10652;50.306;8.570;2023-03-01T07:51:46;20.73;;;12.73;;
20986;SDS011;10652;50.306;8.570;2023-03-01T07:55:48;18.52;;;12.80;;
20986;SDS011;10652;50.306;8.570;2023-03-01T07:59:50;19.40;;;13.20;;
20986;SDS011;10652;50.306;8.570;2023-03-01T08:03:52;18.10;;;12.27;;
20986;SDS011;10652;50.306;8.570;2023-03-01T08:07:54;17.83;;;12.63;;
20986;SDS011;10652;50.306;8.570;2023-03-01T08:11:57;19.77;;;13.40;;
20986;SDS011;10652;50.306;8.570;2023-03-01T08:16:05;21.00;;;13.85;;
20986;SDS011;10652;50.306;8.570;2023-03-01T08:20:09;19.65;;;12.95;;
20986;SDS011;10652;50.306;8.570;2023-03-01T08:24:14;17.88;;;12.75;;
20986;SDS011;10652;50.306;8.570;2023-03-01T08:28:16;18.40;;;12.65;;
20986;SDS011;10652;50.306;8.570;2023-03-01T08:32:18;17.38;;;12.73;;
20986;SDS011;10652;50.306;8.570;2023-03-01T08:36:24;19.25;;;12.50;;
20986;SDS011;10652;50.306;8.570;2023-03-01T08:40:32;17.70;;;12.45;;
20986;SDS011;10652;50.306;8.570;2023-03-01T08:44:34;18.27;;;12.13;;
20986;SDS011;10652;50.306;8.570;2023-03-01T08:48:36;19.05;;;13.18;;
20986;SDS011;10652;50.306;8.570;2023-03-01T08:52:38;19.75;;;12.90;;
20986;SDS011;10652;50.306;8.570;2023-03-01T08:56:41;18.85;;;12.27;;
20986;SDS011;10652;50.306;8.570;2023-03-01T09:00:43;18.27;;;12.23;;
20986;SDS011;10652;50.306;8.570;2023-03-01T09:04:46;18.30;;;12.10;;
20986;SDS011;10652;50.306;8.570;2023-03-01T09:08:48;18.27;;;12.18;;
20986;SDS011;10652;50.306;8.570;2023-03-01T09:12:51;16.88;;;12.40;;
20986;SDS011;10652;50.306;8.570;2023-03-01T09:16:53;18.58;;;12.45;;
20986;SDS011;10652;50.306;8.570;2023-03-01T09:21:03;19.25;;;12.18;;
20986;SDS011;10652;50.306;8.570;2023-03-01T09:25:09;18.45;;;11.43;;
20986;SDS011;10652;50.306;8.570;2023-03-01T09:29:11;18.90;;;11.90;;
20986;SDS011;10652;50.306;8.570;2023-03-01T09:33:13;17.98;;;12.05;;
20986;SDS011;10652;50.306;8.570;2023-03-01T09:37:16;17.45;;;12.13;;
20986;SDS011;10652;50.306;8.570;2023-03-01T09:42:04;15.82;;;10.70;;
20986;SDS011;10652;50.306;8.570;2023-03-01T09:45:47;15.43;;;11.20;;
20986;SDS011;10652;50.306;8.570;2023-03-01T09:49:56;18.92;;;11.43;;
20986;SDS011;10652;50.306;8.570;2023-03-01T09:54:00;14.77;;;11.52;;
20986;SDS011;10652;50.306;8.570;2023-03-01T10:02:35;15.60;;;11.18;;
20986;SDS011;10652;50.306;8.570;2023-03-01T10:06:44;17.65;;;10.77;;
20986;SDS011;10652;50.306;8.570;2023-03-01T10:11:21;15.48;;;10.93;;
20986;SDS011;10652;50.306;8.570;2023-03-01T10:15:34;14.23;;;11.05;;
20986;SDS011;10652;50.306;8.570;2023-03-01T10:19:42;15.52;;;11.18;;
20986;SDS011;10652;50.306;8.570;2023-03-01T10:23:46;14.75;;;10.50;;
20986;SDS011;10652;50.306;8.570;2023-03-01T10:27:53;13.80;;;10.38;;
20986;SDS011;10652;50.306;8.570;2023-03-01T10:31:56;15.38;;;10.27;;
20986;SDS011;10652;50.306;8.570;2023-03-01T10:35:59;14.43;;;10.93;;
20986;SDS011;10652;50.306;8.570;2023-03-01T10:40:03;15.45;;;10.93;;
20986;SDS011;10652;50.306;8.570;2023-03-01T10:44:10;18.35;;;10.77;;
20986;SDS011;10652;50.306;8.570;2023-03-01T10:48:42;14.25;;;10.63;;
20986;SDS011;10652;50.306;8.570;2023-03-01T10:52:54;14.18;;;10.38;;
20986;SDS011;10652;50.306;8.570;2023-03-01T10:57:03;12.70;;;10.23;;
20986;SDS011;10652;50.306;8.570;2023-03-01T11:05:20;15.32;;;10.15;;
20986;SDS011;10652;50.306;8.570;2023-03-01T11:09:30;15.75;;;9.80;;
20986;SDS011;10652;50.306;8.570;2023-03-01T11:13:47;15.55;;;9.98;;
20986;SDS011;10652;50.306;8.570;2023-03-01T11:17:58;15.20;;;10.13;;
20986;SDS011;10652;50.306;8.570;2023-03-01T11:22:18;12.15;;;9.60;;
20986;SDS011;10652;50.306;8.570;2023-03-01T11:26:23;12.73;;;9.73;;
20986;SDS011;10652;50.306;8.570;2023-03-01T11:30:29;14.20;;;10.50;;
20986;SDS011;10652;50.306;8.570;2023-03-01T11:34:42;13.73;;;10.10;;
20986;SDS011;10652;50.306;8.570;2023-03-01T11:38:44;14.85;;;10.35;;
20986;SDS011;10652;50.306;8.570;2023-03-01T11:43:01;14.10;;;10.65;;
20986;SDS011;10652;50.306;8.570;2023-03-01T12:09:38;12.55;;;8.90;;
20986;SDS011;10652;50.306;8.570;2023-03-01T12:32:12;12.30;;;8.70;;
20986;SDS011;10652;50.306;8.570;2023-03-01T12:41:02;11.95;;;8.55;;
20986;SDS011;10652;50.306;8.570;2023-03-01T12:53:53;11.40;;;8.05;;
20986;SDS011;10652;50.306;8.570;2023-03-01T13:10:48;11.77;;;8.30;;
20986;SDS011;10652;50.306;8.570;2023-03-01T13:14:54;11.75;;;8.40;;
20986;SDS011;10652;50.306;8.570;2023-03-01T13:19:06;12.05;;;8.02;;
20986;SDS011;10652;50.306;8.570;2023-03-01T13:27:26;11.32;;;8.15;;
20986;SDS011;10652;50.306;8.570;2023-03-01T13:35:42;9.82;;;7.93;;
20986;SDS011;10652;50.306;8.570;2023-03-01T13:39:46;11.40;;;7.45;;
20986;SDS011;10652;50.306;8.570;2023-03-01T13:43:48;11.82;;;8.20;;
20986;SDS011;10652;50.306;8.570;2023-03-01T13:47:58;12.48;;;8.10;;
20986;SDS011;10652;50.306;8.570;2023-03-01T13:52:04;12.68;;;7.85;;
20986;SDS011;10652;50.306;8.570;2023-03-01T13:56:26;12.27;;;7.88;;
20986;SDS011;10652;50.306;8.570;2023-03-01T14:00:33;11.82;;;8.13;;
20986;SDS011;10652;50.306;8.570;2023-03-01T14:04:37;10.20;;;7.20;;
20986;SDS011;10652;50.306;8.570;2023-03-01T14:08:40;10.90;;;7.30;;
20986;SDS011;10652;50.306;8.570;2023-03-01T14:12:51;11.10;;;7.30;;
20986;SDS011;10652;50.306;8.570;2023-03-01T14:21:21;8.73;;;6.63;;
20986;SDS011;10652;50.306;8.570;2023-03-01T14:29:36;9.32;;;7.22;;
20986;SDS011;10652;50.306;8.570;2023-03-01T14:33:40;13.23;;;7.00;;
20986;SDS011;10652;50.306;8.570;2023-03-01T14:37:42;9.85;;;6.90;;
20986;SDS011;10652;50.306;8.570;2023-03-01T14:41:45;12.15;;;8.07;;
20986;SDS011;10652;50.306;8.570;2023-03-01T14:45:48;10.90;;;7.10;;
20986;SDS011;10652;50.306;8.570;2023-03-01T14:49:54;10.13;;;7.32;;
20986;SDS011;10652;50.306;8.570;2023-03-01T14:54:01;8.20;;;6.53;;
20986;SDS011;10652;50.306;8.570;2023-03-01T14:58:04;12.30;;;7.70;;
20986;SDS011;10652;50.306;8.570;2023-03-01T15:02:08;13.13;;;7.38;;
20986;SDS011;10652;50.306;8.570;2023-03-01T15:06:19;10.25;;;7.70;;
20986;SDS011;10652;50.306;8.570;2023-03-01T15:10:25;10.95;;;7.80;;
20986;SDS011;10652;50.306;8.570;2023-03-01T15:19:03;16.58;;;10.98;;
20986;SDS011;10652;50.306;8.570;2023-03-01T15:23:13;12.10;;;8.50;;
20986;SDS011;10652;50.306;8.570;2023-03-01T15:27:24;11.65;;;8.18;;
20986;SDS011;10652;50.306;8.570;2023-03-01T15:31:37;12.55;;;9.07;;
20986;SDS011;10652;50.306;8.570;2023-03-01T15:35:44;9.32;;;7.10;;
20986;SDS011;10652;50.306;8.570;2023-03-01T15:39:53;11.75;;;7.57;;
20986;SDS011;10652;50.306;8.570;2023-03-01T15:48:17;9.60;;;7.10;;
20986;SDS011;10652;50.306;8.570;2023-03-01T15:52:23;12.67;;;7.83;;
20986;SDS011;10652;50.306;8.570;2023-03-01T15:56:30;9.65;;;6.70;;
20986;SDS011;10652;50.306;8.570;2023-03-01T16:00:33;10.23;;;6.45;;
20986;SDS011;10652;50.306;8.570;2023-03-01T16:04:35;9.73;;;6.72;;
20986;SDS011;10652;50.306;8.570;2023-03-01T16:08:38;8.52;;;6.10;;
20986;SDS011;10652;50.306;8.570;2023-03-01T16:12:40;7.97;;;6.05;;
20986;SDS011;10652;50.306;8.570;2023-03-01T16:16:42;9.38;;;6.40;;
20986;SDS011;10652;50.306;8.570;2023-03-01T16:20:45;9.02;;;6.20;;
20986;SDS011;10652;50.306;8.570;2023-03-01T16:24:48;9.70;;;6.90;;
20986;SDS011;10652;50.306;8.570;2023-03-01T16:28:53;8.88;;;6.50;;
20986;SDS011;10652;50.306;8.570;2023-03-01T16:32:57;8.48;;;6.32;;
20986;SDS011;10652;50.306;8.570;2023-03-01T16:37:00;10.20;;;6.82;;
20986;SDS011;10652;50.306;8.570;2023-03-01T16:41:02;11.07;;;6.60;;
20986;SDS011;10652;50.306;8.570;2023-03-01T16:45:05;7.85;;;6.15;;
20986;SDS011;10652;50.306;8.570;2023-03-01T16:49:24;8.50;;;6.20;;
20986;SDS011;10652;50.306;8.570;2023-03-01T16:53:26;10.45;;;7.63;;
20986;SDS011;10652;50.306;8.570;2023-03-01T16:57:29;9.35;;;6.10;;
20986;SDS011;10652;50.306;8.570;2023-03-01T17:01:32;9.20;;;6.80;;
20986;SDS011;10652;50.306;8.570;2023-03-01T17:05:41;8.50;;;5.80;;
20986;SDS011;10652;50.306;8.570;2023-03-01T17:09:43;11.57;;;6.70;;
20986;SDS011;10652;50.306;8.570;2023-03-01T17:13:45;10.65;;;6.70;;
20986;SDS011;10652;50.306;8.570;2023-03-01T17:17:47;7.57;;;6.18;;
20986;SDS011;10652;50.306;8.570;2023-03-01T17:21:52;11.45;;;7.13;;
20986;SDS011;10652;50.306;8.570;2023-03-01T17:25:54;11.05;;;6.80;;
20986;SDS011;10652;50.306;8.570;2023-03-01T17:29:56;11.07;;;7.15;;
20986;SDS011;10652;50.306;8.570;2023-03-01T17:33:58;9.60;;;6.25;;
20986;SDS011;10652;50.306;8.570;2023-03-01T17:38:03;10.05;;;7.32;;
20986;SDS011;10652;50.306;8.570;2023-03-01T17:42:06;12.18;;;7.45;;
20986;SDS011;10652;50.306;8.570;2023-03-01T17:46:08;12.38;;;7.53;;
20986;SDS011;10652;50.306;8.570;2023-03-01T17:50:10;10.57;;;6.85;;
20986;SDS011;10652;50.306;8.570;2023-03-01T17:54:13;10.63;;;7.20;;
20986;SDS011;10652;50.306;8.570;2023-03-01T17:58:15;9.52;;;6.80;;
20986;SDS011;10652;50.306;8.570;2023-03-01T18:02:23;10.20;;;6.90;;
20986;SDS011;10652;50.306;8.570;2023-03-01T18:06:27;11.80;;;7.38;;
20986;SDS011;10652;50.306;8.570;2023-03-01T18:10:31;12.63;;;7.70;;
20986;SDS011;10652;50.306;8.570;2023-03-01T18:14:34;10.48;;;7.20;;
20986;SDS011;10652;50.306;8.570;2023-03-01T18:18:36;14.73;;;8.73;;
20986;SDS011;10652;50.306;8.570;2023-03-01T18:22:38;10.15;;;7.80;;
20986;SDS011;10652;50.306;8.570;2023-03-01T18:26:40;11.63;;;8.10;;
20986;SDS011;10652;50.306;8.570;2023-03-01T18:30:42;8.30;;;6.70;;
20986;SDS011;10652;50.306;8.570;2023-03-01T18:34:44;11.25;;;7.68;;
20986;SDS011;10652;50.306;8.570;2023-03-01T18:38:46;10.65;;;7.13;;
20986;SDS011;10652;50.306;8.570;2023-03-01T18:42:49;11.07;;;8.45;;
20986;SDS011;10652;50.306;8.570;2023-03-01T18:46:51;14.20;;;7.70;;
20986;SDS011;10652;50.306;8.570;2023-03-01T18:50:53;12.85;;;7.68;;
20986;SDS011;10652;50.306;8.570;2023-03-01T18:54:56;13.25;;;7.95;;
20986;SDS011;10652;50.306;8.570;2023-03-01T18:58:58;11.13;;;8.80;;
20986;SDS011;10652;50.306;8.570;2023-03-01T19:03:01;13.57;;;8.93;;
20986;SDS011;10652;50.306;8.570;2023-03-01T19:07:04;12.05;;;7.65;;
20986;SDS011;10652;50.306;8.570;2023-03-01T19:11:07;10.63;;;7.47;;
20986;SDS011;10652;50.306;8.570;2023-03-01T19:15:10;13.60;;;7.80;;
20986;SDS011;10652;50.306;8.570;2023-03-01T19:19:12;11.15;;;7.25;;
20986;SDS011;10652;50.306;8.570;2023-03-01T19:23:14;13.27;;;8.00;;
20986;SDS011;10652;50.306;8.570;2023-03-01T19:27:16;13.57;;;8.52;;
20986;SDS011;10652;50.306;8.570;2023-03-01T19:31:20;11.90;;;8.20;;
20986;SDS011;10652;50.306;8.570;2023-03-01T19:35:27;11.82;;;7.95;;
20986;SDS011;10652;50.306;8.570;2023-03-01T19:39:29;11.27;;;8.27;;
20986;SDS011;10652;50.306;8.570;2023-03-01T19:43:31;12.68;;;8.18;;
20986;SDS011;10652;50.306;8.570;2023-03-01T19:47:33;13.98;;;7.95;;
20986;SDS011;10652;50.306;8.570;2023-03-01T19:51:35;12.18;;;8.38;;
20986;SDS011;10652;50.306;8.570;2023-03-01T19:55:39;10.27;;;7.80;;
20986;SDS011;10652;50.306;8.570;2023-03-01T19:59:42;13.32;;;9.20;;
20986;SDS011;10652;50.306;8.570;2023-03-01T20:03:45;17.42;;;11.80;;
20986;SDS011;10652;50.306;8.570;2023-03-01T20:07:47;13.02;;;8.95;;
20986;SDS011;10652;50.306;8.570;2023-03-01T20:11:51;18.05;;;11.43;;
20986;SDS011;10652;50.306;8.570;2023-03-01T20:15:56;15.75;;;10.55;;
20986;SDS011;10652;50.306;8.570;2023-03-01T20:19:59;12.15;;;7.88;;
20986;SDS011;10652;50.306;8.570;2023-03-01T20:24:01;14.00;;;8.77;;
20986;SDS011;10652;50.306;8.570;2023-03-01T20:28:03;11.60;;;9.10;;
20986;SDS011;10652;50.306;8.570;2023-03-01T20:32:05;13.32;;;8.65;;
20986;SDS011;10652;50.306;8.570;2023-03-01T20:36:08;15.05;;;9.50;;
20986;SDS011;10652;50.306;8.570;2023-03-01T20:40:10;14.80;;;9.20;;
20986;SDS011;10652;50.306;8.570;2023-03-01T20:44:13;14.82;;;8.27;;
20986;SDS011;10652;50.306;8.570;2023-03-01T20:48:15;14.40;;;8.80;;
20986;SDS011;10652;50.306;8.570;2023-03-01T20:52:17;12.82;;;8.60;;
20986;SDS011;10652;50.306;8.570;2023-03-01T20:56:20;11.27;;;7.88;;
20986;SDS011;10652;50.306;8.570;2023-03-01T21:00:35;13.55;;;8.32;;
20986;SDS011;10652;50.306;8.570;2023-03-01T21:04:38;12.57;;;8.43;;
20986;SDS011;10652;50.306;8.570;2023-03-01T21:08:40;14.65;;;8.98;;
20986;SDS011;10652;50.306;8.570;2023-03-01T21:12:42;10.25;;;8.10;;
20986;SDS011;10652;50.306;8.570;2023-03-01T21:16:44;14.82;;;8.88;;
20986;SDS011;10652;50.306;8.570;2023-03-01T21:20:46;14.43;;;8.68;;
20986;SDS011;10652;50.306;8.570;2023-03-01T21:24:49;12.77;;;8.02;;
20986;SDS011;10652;50.306;8.570;2023-03-01T21:28:56;13.05;;;8.43;;
20986;SDS011;10652;50.306;8.570;2023-03-01T21:32:59;13.43;;;8.45;;
20986;SDS011;10652;50.306;8.570;2023-03-01T21:37:02;13.43;;;8.55;;
20986;SDS011;10652;50.306;8.570;2023-03-01T21:41:05;15.15;;;8.90;;
20986;SDS011;10652;50.306;8.570;2023-03-01T21:45:08;13.05;;;8.68;;
20986;SDS011;10652;50.306;8.570;2023-03-01T21:49:11;13.85;;;8.70;;
20986;SDS011;10652;50.306;8.570;2023-03-01T21:53:13;15.57;;;9.23;;
20986;SDS011;10652;50.306;8.570;2023-03-01T21:57:15;11.82;;;8.40;;
20986;SDS011;10652;50.306;8.570;2023-03-01T22:01:19;13.35;;;9.00;;
20986;SDS011;10652;50.306;8.570;2023-03-01T22:05:26;17.55;;;10.88;;
20986;SDS011;10652;50.306;8.570;2023-03-01T22:09:28;15.55;;;10.40;;
20986;SDS011;10652;50.306;8.570;2023-03-01T22:13:30;14.77;;;9.90;;
20986;SDS011;10652;50.306;8.570;2023-03-01T22:17:32;16.63;;;11.48;;
20986;SDS011;10652;50.306;8.570;2023-03-01T22:21:37;15.18;;;10.00;;
20986;SDS011;10652;50.306;8.570;2023-03-01T22:25:40;14.93;;;9.80;;
20986;SDS011;10652;50.306;8.570;2023-03-01T22:29:43;17.05;;;10.82;;
20986;SDS011;10652;50.306;8.570;2023-03-01T22:33:45;14.65;;;10.70;;
20986;SDS011;10652;50.306;8.570;2023-03-01T22:37:47;15.80;;;10.45;;
20986;SDS011;10652;50.306;8.570;2023-03-01T22:41:49;25.30;;;15.43;;
20986;SDS011;10652;50.306;8.570;2023-03-01T22:45:51;24.92;;;16.05;;
20986;SDS011;10652;50.306;8.570;2023-03-01T22:49:54;23.83;;;14.68;;
20986;SDS011;10652;50.306;8.570;2023-03-01T22:53:56;21.50;;;13.02;;
20986;SDS011;10652;50.306;8.570;2023-03-01T22:57:59;15.30;;;10.27;;
20986;SDS011;10652;50.306;8.570;2023-03-01T23:02:01;14.05;;;9.70;;
20986;SDS011;10652;50.306;8.570;2023-03-01T23:06:03;14.20;;;9.65;;
20986;SDS011;10652;50.306;8.570;2023-03-01T23:10:05;12.82;;;9.35;;
20986;SDS011;10652;50.306;8.570;2023-03-01T23:14:08;13.85;;;9.13;;
20986;SDS011;10652;50.306;8.570;2023-03-01T23:18:10;13.50;;;9.73;;
20986;SDS011;10652;50.306;8.570;2023-03-01T23:22:12;13.98;;;9.10;;
20986;SDS011;10652;50.306;8.570;2023-03-01T23:26:14;16.73;;;9.77;;
20986;SDS011;10652;50.306;8.570;2023-03-01T23:30:17;16.52;;;11.05;;
20986;SDS011;10652;50.306;8.570;2023-03-01T23:34:20;18.92;;;10.73;;
20986;SDS011;10652;50.306;8.570;2023-03-01T23:38:22;14.57;;;9.68;;
20986;SDS011;10652;50.306;8.570;2023-03-01T23:42:24;16.60;;;10.20;;
20986;SDS011;10652;50.306;8.570;2023-03-01T23:46:27;14.48;;;10.35;;
20986;SDS011;10652;50.306;8.570;2023-03-01T23:50:33;15.43;;;10.00;;
20986;SDS011;10652;50.306;8.570;2023-03-01T23:54:36;14.63;;;9.45;;
20986;SDS011;10652;50.306;8.570;2023-03-01T23:58:38;15.07;;;10.15;;
